createdAt,value
2019-04-11T13:04:44.307Z,35.9274
2019-04-11T13:04:47.289Z,32.5032
2019-04-11T13:04:49.594Z,32.3568
2019-04-11T13:04:51.885Z,32.4056
2019-04-11T13:04:54.195Z,32.3735
2019-04-11T13:04:56.540Z,32.5063
2019-04-11T13:04:58.845Z,32.5383
2019-04-11T13:05:21.094Z,53.1960
2019-04-11T13:05:36.967Z,28.4825
2019-04-11T13:05:53.774Z,29.3751
2019-04-11T13:06:10.826Z,30.2373
2019-04-11T13:06:35.393Z,31.3542
2019-04-11T13:06:48.769Z,34.1176
2019-04-11T13:07:04.954Z,31.7342
2019-04-11T13:07:21.798Z,31.5816
2019-04-11T13:07:38.876Z,32.2148
2019-04-11T13:07:56.031Z,31.6243
2019-04-11T13:08:12.940Z,31.5190
2019-04-11T13:08:35.174Z,31.4641
2019-04-11T13:08:51.933Z,32.0302
2019-04-11T13:09:08.940Z,32.0912
2019-04-11T13:09:50.346Z,31.9539
2019-04-11T13:10:07.042Z,31.5557
2019-04-11T13:10:24.153Z,31.5145
2019-04-11T13:10:40.991Z,31.6869
2019-04-11T13:10:58.127Z,32.0409
2019-04-11T13:23:18.648Z,49.0517
2019-04-11T13:23:46.135Z,51.0018
2019-04-11T13:23:52.911Z,50.2281
2019-04-11T13:23:59.892Z,49.6529
2019-04-11T13:32:22.869Z,42.7634
2019-04-11T13:32:29.630Z,42.6993
2019-04-11T13:32:36.544Z,43.3524
2019-04-11T13:32:43.599Z,43.4867
2019-04-11T13:32:50.576Z,43.2944
2019-04-11T13:32:57.589Z,43.1067
2019-04-11T13:33:04.588Z,42.8901
2019-04-11T13:33:11.557Z,42.7253
2019-04-11T13:33:18.569Z,42.5528
2019-04-11T13:33:25.686Z,42.4186
2019-04-11T13:33:32.569Z,42.2324
2019-04-11T13:33:39.575Z,42.1454
2019-04-11T13:33:46.554Z,42.0859
2019-04-11T13:33:53.578Z,41.9699
2019-04-11T13:34:00.589Z,41.8830
2019-04-11T13:34:07.566Z,41.8982
2019-04-11T13:34:14.579Z,41.8708
2019-04-11T13:34:21.590Z,41.9883
2019-04-11T13:34:27.699Z,41.9379
2019-04-11T13:34:34.597Z,41.9348
2019-04-11T13:34:41.554Z,41.8845
2019-04-11T13:34:48.607Z,41.8479
2019-04-11T13:34:55.591Z,41.7594
2019-04-11T13:35:02.574Z,41.7044
2019-04-11T13:35:09.597Z,41.5991
2019-04-11T13:35:16.587Z,41.5259
2019-04-11T13:35:23.597Z,41.5091
2019-04-11T13:35:30.675Z,41.5854
2019-04-11T13:35:37.583Z,41.7426
2019-04-11T13:35:44.578Z,41.7426
2019-04-11T13:35:51.587Z,41.7288
2019-04-11T13:35:58.552Z,41.6220
2019-04-11T13:36:05.582Z,41.6098
2019-04-11T13:36:12.582Z,41.5854
2019-04-11T13:36:19.538Z,41.6236
2019-04-11T13:36:26.588Z,41.5869
2019-04-11T13:36:33.635Z,41.5305
2019-04-11T13:36:39.578Z,41.5717
2019-04-11T13:36:46.559Z,41.5625
2019-04-11T13:36:53.781Z,41.4847
2019-04-11T13:36:59.581Z,41.4572
2019-04-11T13:37:06.616Z,41.4084
2019-04-11T13:37:13.574Z,41.3428
2019-04-11T13:37:20.529Z,41.4160
2019-04-11T13:37:27.595Z,41.4298
2019-04-11T13:37:34.664Z,41.4130
2019-04-11T13:37:41.591Z,42.3514
2019-04-11T13:37:48.569Z,44.1032
2019-04-11T13:37:55.559Z,45.9220
2019-04-11T13:38:02.560Z,47.5135
2019-04-11T13:38:09.601Z,48.8701
2019-04-11T13:38:17.355Z,49.9367
2019-04-11T13:38:24.589Z,50.9834
2019-04-11T13:38:31.597Z,51.7159
2019-04-11T13:38:38.653Z,52.3720
2019-04-11T13:38:45.526Z,52.8969
2019-04-11T13:38:52.553Z,53.3883
2019-04-11T13:39:02.323Z,53.6309
2019-04-11T13:39:09.557Z,53.5882
2019-04-11T13:39:16.571Z,53.3043
2019-04-11T13:39:23.567Z,53.0205
2019-04-11T13:39:30.569Z,52.6772
2019-04-11T13:39:37.588Z,52.2972
2019-04-11T13:39:46.572Z,52.0592
2019-04-11T13:39:53.619Z,51.6655
2019-04-11T13:40:00.579Z,51.4000
2019-04-11T13:40:07.598Z,51.1955
2019-04-11T13:40:14.560Z,50.9621
2019-04-11T13:40:21.588Z,50.8568
2019-04-11T13:40:28.581Z,50.7103
2019-04-11T13:40:35.630Z,50.5684
2019-04-11T13:40:42.580Z,50.4707
2019-04-11T13:40:49.640Z,50.3304
2019-04-11T13:40:56.602Z,50.2251
2019-04-11T13:41:03.604Z,50.1427
2019-04-11T13:41:10.645Z,50.0694
2019-04-11T13:41:19.988Z,49.9870
2019-04-11T13:41:26.649Z,49.8482
2019-04-11T13:41:33.577Z,49.7978
2019-04-11T13:41:40.560Z,49.7154
2019-04-11T13:41:47.625Z,49.7063
2019-04-11T13:41:54.672Z,49.6574
2019-04-11T13:42:01.598Z,49.6239
2019-04-11T13:42:08.632Z,49.5796
2019-04-11T13:42:15.591Z,49.5613
2019-04-11T13:42:22.617Z,49.5506
2019-04-11T13:42:29.649Z,49.5384
2019-04-11T13:42:36.602Z,49.4911
2019-04-11T13:42:43.586Z,49.5064
2019-04-11T13:42:50.580Z,49.5048
2019-04-11T13:42:57.720Z,49.4820
2019-04-11T13:43:04.565Z,49.4560
2019-04-11T13:58:17.738Z,47.8675
2019-04-11T13:58:25.137Z,47.8935
2019-04-11T13:58:32.150Z,47.8798
2019-04-11T13:58:39.127Z,47.8538
2019-04-11T13:58:46.189Z,47.8904
2019-04-11T13:58:53.159Z,47.8889
2019-04-11T13:59:00.125Z,47.8523
2019-04-11T13:59:07.118Z,47.8035
2019-04-11T13:59:14.083Z,47.8386
2019-04-11T13:59:20.235Z,47.8019
2019-04-11T13:59:27.154Z,47.8401
2019-04-11T13:59:34.135Z,47.8126
2019-04-11T13:59:40.167Z,47.8019
2019-04-11T13:59:47.115Z,47.7790
2019-04-11T13:59:54.115Z,47.7897
2019-04-11T14:00:01.157Z,47.7699
2019-04-11T14:00:08.105Z,47.8019
2019-04-11T14:00:15.143Z,47.8126
2019-04-11T14:00:22.194Z,47.7470
2019-04-11T14:00:29.138Z,47.7928
2019-04-11T14:00:36.144Z,47.7943
2019-04-11T14:00:43.145Z,47.7836
2019-04-11T14:00:50.142Z,47.7852
2019-04-11T14:00:57.168Z,47.7806
2019-04-11T14:01:04.165Z,47.7974
2019-04-11T14:01:11.215Z,47.8202
2019-04-11T14:01:18.151Z,47.8950
2019-04-11T14:01:25.243Z,47.8340
2019-04-11T14:01:32.146Z,47.8492
2019-04-11T14:01:39.141Z,47.8843
2019-04-11T14:01:45.126Z,47.8614
2019-04-11T14:01:52.213Z,47.8660
2019-04-11T14:01:59.142Z,47.9118
2019-04-11T14:02:06.132Z,47.8981
2019-04-11T14:02:13.123Z,47.9500
2019-04-11T14:02:20.088Z,47.9484
2019-04-11T14:02:27.209Z,47.9850
2019-04-11T14:02:34.142Z,48.0003
2019-04-11T14:02:50.620Z,48.0461
2019-04-11T14:02:53.160Z,48.0232
2019-04-11T14:03:00.189Z,48.0461
2019-04-11T14:03:07.130Z,48.0827
2019-04-11T14:03:14.111Z,48.0583
2019-04-11T14:03:21.155Z,48.1132
2019-04-11T14:03:27.188Z,48.0964
2019-04-11T14:03:34.135Z,48.1086
2019-04-11T14:03:41.154Z,48.1453
2019-04-11T14:03:48.138Z,48.1590
2019-04-11T14:03:55.200Z,48.2795
2019-04-11T14:04:02.131Z,48.2551
2019-04-11T14:04:09.096Z,48.2460
2019-04-11T14:04:16.131Z,48.2338
2019-04-11T14:04:23.118Z,48.2551
2019-04-11T14:04:30.190Z,48.2551
2019-04-11T14:04:38.604Z,48.2689
2019-04-11T14:04:46.187Z,48.2795
2019-04-11T14:04:54.474Z,48.2933
2019-04-11T14:05:02.204Z,48.3192
2019-04-11T14:05:10.682Z,48.3650
2019-04-11T14:05:17.148Z,48.3528
2019-04-11T14:05:24.261Z,48.3665
2019-04-11T14:05:31.220Z,48.3528
2019-04-11T14:05:38.087Z,48.3757
2019-04-11T14:05:45.113Z,48.4031
2019-04-11T14:05:52.176Z,48.4291
2019-04-11T14:05:59.212Z,48.4031
2019-04-11T14:06:06.150Z,48.3894
2019-04-11T14:06:13.170Z,48.4123
2019-04-11T14:06:20.111Z,48.4016
2019-04-11T14:06:27.164Z,48.4886
2019-04-11T14:06:34.244Z,48.4993
2019-04-11T14:06:41.138Z,48.4886
2019-04-11T14:06:48.164Z,48.4993
2019-04-11T14:06:55.163Z,48.4993
2019-04-11T14:07:02.166Z,48.4886
2019-04-11T14:07:09.149Z,48.5588
2019-04-11T14:07:16.082Z,48.5817
2019-04-11T14:07:23.622Z,48.5679
2019-04-11T14:07:31.099Z,48.5679
2019-04-11T14:07:38.210Z,48.6076
2019-04-11T14:07:45.110Z,48.6076
2019-04-11T14:07:52.111Z,48.6183
2019-04-11T14:07:59.145Z,48.6213
2019-04-11T14:08:06.177Z,48.6320
2019-04-11T14:08:13.117Z,48.6076
2019-04-11T14:08:20.170Z,48.6442
2019-04-11T14:08:27.177Z,48.7037
2019-04-11T14:08:34.163Z,48.6763
2019-04-11T14:08:41.220Z,48.6687
2019-04-11T14:08:48.135Z,48.7053
2019-04-11T14:08:55.145Z,48.6915
2019-04-11T14:09:02.144Z,48.6809
2019-04-11T14:22:17.628Z,45.0782
2019-04-11T14:22:28.916Z,45.3086
2019-04-11T14:22:36.302Z,45.4643
2019-04-11T14:22:43.591Z,45.5421
2019-04-11T14:22:51.255Z,45.6245
2019-04-11T14:22:57.283Z,45.7374
2019-04-11T14:23:04.329Z,45.6977
2019-04-11T14:23:13.805Z,45.8106
2019-04-11T14:23:22.504Z,45.8701
2019-04-11T14:23:29.266Z,45.9113
2019-04-11T14:23:36.299Z,45.8610
2019-04-11T14:23:43.331Z,45.9754
2019-04-11T14:23:50.288Z,45.9480
2019-04-11T14:23:57.310Z,45.9770
2019-04-11T14:24:04.265Z,45.9998
2019-04-11T14:24:11.586Z,45.9937
2019-04-11T14:24:19.270Z,45.9449
2019-04-11T14:24:26.332Z,45.9113
2019-04-11T14:24:33.254Z,45.9434
2019-04-11T14:24:41.790Z,45.9907
2019-04-11T14:24:49.295Z,46.0304
2019-04-11T14:24:56.356Z,46.1097
2019-04-11T14:25:03.291Z,46.0899
2019-04-11T14:25:13.499Z,46.1540
2019-04-11T14:25:22.281Z,46.0685
2019-04-11T14:25:29.350Z,46.0960
2019-04-11T14:25:36.241Z,46.1372
2019-04-11T14:25:43.275Z,46.1921
2019-04-11T14:25:49.301Z,46.2181
2019-04-11T14:25:56.301Z,46.2287
2019-04-11T14:26:03.276Z,46.2821
2019-04-11T14:26:10.263Z,46.3066
2019-04-11T14:26:17.262Z,46.2959
2019-04-11T14:26:24.294Z,46.3890
2019-04-11T14:26:31.320Z,46.4149
2019-04-11T14:26:38.282Z,46.4790
2019-04-11T14:26:45.297Z,46.4149
2019-04-11T14:26:51.288Z,46.5171
2019-04-11T14:26:58.262Z,46.5293
2019-04-11T14:27:05.313Z,46.5660
2019-04-11T14:27:12.281Z,46.6804
2019-04-11T14:27:19.343Z,46.7781
2019-04-11T14:27:26.281Z,46.8177
2019-04-11T14:27:33.374Z,46.8177
2019-04-11T14:27:40.288Z,46.8406
2019-04-11T14:27:47.332Z,46.8925
2019-04-11T14:27:54.300Z,46.8452
2019-04-11T14:28:01.270Z,46.8818
2019-04-11T14:28:08.357Z,46.9200
2019-04-11T14:28:15.274Z,46.9596
2019-04-11T14:28:22.326Z,46.9932
2019-04-11T14:28:28.288Z,47.0329
2019-04-11T14:28:35.314Z,47.1077
2019-04-11T14:28:42.303Z,47.0573
2019-04-11T14:28:49.294Z,47.0695
2019-04-11T14:28:56.246Z,47.1443
2019-04-11T14:29:03.242Z,47.1672
2019-04-11T14:29:10.330Z,47.1443
2019-04-11T14:29:17.303Z,47.2068
2019-04-11T14:29:24.261Z,47.2450
2019-04-11T14:29:31.271Z,47.2663
2019-04-11T14:29:38.348Z,47.2663
2019-04-11T14:29:45.260Z,47.3045
2019-04-11T14:29:52.281Z,47.2938
2019-04-11T14:29:59.291Z,47.3045
2019-04-11T14:30:06.317Z,47.3442
2019-04-11T14:30:12.295Z,47.3945
2019-04-11T14:30:19.341Z,47.3915
2019-04-11T14:30:26.282Z,47.4052
2019-04-11T14:30:33.278Z,47.4586
2019-04-11T14:30:40.352Z,47.4784
2019-04-11T14:30:51.645Z,47.5151
2019-04-11T14:30:59.304Z,47.4907
2019-04-11T14:31:06.314Z,47.4815
2019-04-11T14:31:12.280Z,47.5319
2019-04-11T14:31:21.957Z,47.5700
2019-04-11T14:31:29.303Z,47.5914
2019-04-11T14:31:36.292Z,47.6051
2019-04-11T14:31:43.372Z,47.7165
2019-04-11T14:31:50.867Z,47.7562
2019-04-11T14:32:00.246Z,47.7424
2019-04-11T14:32:07.277Z,47.7531
2019-04-11T14:32:14.290Z,47.7668
2019-04-11T14:32:23.184Z,47.7806
2019-04-11T14:32:30.280Z,47.8294
2019-04-11T14:32:37.295Z,47.8172
2019-04-11T14:32:44.315Z,47.8447
2019-04-11T14:32:51.766Z,47.8569
2019-04-11T14:33:01.238Z,47.9042
2019-04-11T14:33:08.264Z,47.8630
2019-04-11T14:33:15.311Z,47.8630
2019-04-11T14:33:25.184Z,47.9042
2019-04-11T14:33:34.294Z,47.9210
2019-04-11T14:33:41.282Z,47.9438
2019-04-11T14:33:48.332Z,47.9042
2019-04-11T14:33:55.964Z,47.9438
2019-04-11T14:34:03.285Z,47.9530
2019-04-11T14:34:10.265Z,48.0140
2019-04-11T14:34:16.235Z,48.0034
2019-04-11T14:34:23.283Z,48.0186
2019-04-11T14:34:30.305Z,48.0903
2019-04-11T14:34:37.284Z,48.0308
2019-04-11T14:34:44.273Z,48.0171
2019-04-11T14:34:51.397Z,48.0308
2019-04-11T14:34:58.307Z,48.0400
2019-04-11T14:35:05.307Z,48.0903
2019-04-11T14:35:12.253Z,48.0873
2019-04-11T14:35:19.316Z,48.1315
2019-04-11T14:35:26.301Z,48.0674
2019-04-11T14:35:33.288Z,48.1193
2019-04-11T14:35:39.266Z,48.1147
2019-04-11T14:35:46.312Z,48.1956
2019-04-11T14:35:53.337Z,48.1651
2019-04-11T14:36:00.299Z,48.1651
2019-04-11T14:36:07.282Z,48.1376
2019-04-11T14:36:14.277Z,48.1819
2019-04-11T14:36:32.601Z,48.1910
2019-04-11T14:36:33.957Z,48.1910
2019-04-11T14:36:41.297Z,48.2322
2019-04-11T14:36:48.312Z,48.2826
2019-04-11T14:36:55.359Z,48.2689
2019-04-11T14:37:02.274Z,48.2521
